Time;durP1;ratioP1;P1;durP2;ratioP2;P2;SDS_P1;SDS_P2;PMS_P1;PMS_P2;Temp;Humidity;BMP_temperature;BMP_pressure;BME280_temperature;BME280_humidity;BME280_pressure;Samples;Min_cycle;Max_cycle;Signal;HPM_P1;HPM_P2
2022/10/04 00:02:20;;;;;;;11.60;2.90;;;19.70;62.90;;;;;;6248702;28;20053;-77
2022/10/04 00:05:24;;;;;;;8.30;2.90;;;19.70;63.00;;;;;;6241846;28;20045;-77
2022/10/04 00:08:50;;;;;;;9.30;3.88;;;19.70;62.90;;;;;;6281155;28;20029;-77
2022/10/04 00:11:54;;;;;;;12.40;3.20;;;19.60;63.00;;;;;;6247372;28;20155;-78
2022/10/04 00:15:05;;;;;;;12.25;3.08;;;19.60;63.00;;;;;;6233432;28;20100;-78
2022/10/04 00:18:10;;;;;;;6.28;3.25;;;19.60;63.10;;;;;;6266907;28;20033;-78
2022/10/04 00:21:11;;;;;;;6.18;2.72;;;19.70;64.10;;;;;;6267968;28;20048;-77
2022/10/04 00:24:21;;;;;;;9.77;3.25;;;19.70;63.50;;;;;;6267900;28;20029;-77
2022/10/04 00:27:25;;;;;;;11.27;3.15;;;19.70;63.50;;;;;;6269576;28;20124;-77
2022/10/04 00:30:37;;;;;;;4.80;2.70;;;19.70;63.50;;;;;;6243088;28;20037;-77
2022/10/04 00:34:06;;;;;;;4.97;2.90;;;19.60;63.70;;;;;;6262555;28;20384;-77
2022/10/04 00:37:19;;;;;;;7.93;3.15;;;19.70;63.90;;;;;;6263094;28;20075;-78
2022/10/04 00:40:21;;;;;;;8.35;2.92;;;19.70;63.90;;;;;;6265486;28;20047;-78
2022/10/04 00:43:28;;;;;;;7.93;4.22;;;19.70;63.90;;;;;;6268719;28;20071;-77
2022/10/04 00:46:30;;;;;;;11.27;3.60;;;19.70;64.00;;;;;;6268368;28;20557;-77
2022/10/04 00:49:39;;;;;;;9.40;3.65;;;19.70;64.80;;;;;;6268863;28;20025;-77
2022/10/04 00:52:46;;;;;;;11.00;3.25;;;19.80;64.00;;;;;;6243091;28;20042;-77
2022/10/04 00:56:00;;;;;;;8.57;2.75;;;19.70;63.90;;;;;;6264391;28;20119;-78
2022/10/04 00:59:40;;;;;;;8.55;3.00;;;19.70;63.90;;;;;;6227895;28;20127;-77
2022/10/04 01:03:00;;;;;;;5.88;3.13;;;19.60;63.90;;;;;;6254478;28;20068;-77
2022/10/04 01:06:04;;;;;;;7.03;3.10;;;19.60;64.80;;;;;;6263777;28;20412;-77
2022/10/04 01:09:08;;;;;;;9.18;2.97;;;19.60;63.70;;;;;;6252532;28;20044;-76
2022/10/04 01:12:35;;;;;;;7.63;2.90;;;19.60;63.70;;;;;;6261756;28;20466;-77
2022/10/04 01:16:01;;;;;;;5.93;3.13;;;19.60;63.80;;;;;;6266312;28;20432;-77
2022/10/04 01:19:24;;;;;;;10.38;5.43;;;19.60;63.70;;;;;;6266406;28;20969;-77
2022/10/04 01:22:41;;;;;;;13.15;6.20;;;19.60;63.70;;;;;;6266790;28;20037;-79
2022/10/04 01:25:50;;;;;;;12.57;5.93;;;19.70;63.60;;;;;;6263966;28;20037;-76
2022/10/04 01:28:53;;;;;;;16.85;5.82;;;19.60;63.50;;;;;;6258710;28;20029;-77
2022/10/04 01:31:59;;;;;;;11.13;5.50;;;19.70;63.50;;;;;;6280902;28;20048;-77
2022/10/04 01:35:00;;;;;;;8.32;4.93;;;19.70;63.50;;;;;;6244627;28;20122;-77
2022/10/04 01:38:06;;;;;;;11.10;5.13;;;19.70;63.40;;;;;;6268154;28;20052;-77
2022/10/04 01:41:09;;;;;;;8.40;4.15;;;19.60;63.50;;;;;;6268392;28;20514;-77
2022/10/04 01:44:20;;;;;;;6.72;3.63;;;19.60;63.60;;;;;;6267461;28;20021;-77
2022/10/04 01:47:52;;;;;;;11.70;3.70;;;19.50;63.80;;;;;;6258826;28;20048;-78
2022/10/04 01:50:58;;;;;;;7.75;4.30;;;19.50;64.00;;;;;;6266142;28;20037;-77
2022/10/04 01:54:04;;;;;;;8.82;3.97;;;19.40;64.20;;;;;;6226747;28;20041;-77
2022/10/04 01:57:12;;;;;;;5.65;3.03;;;19.30;64.30;;;;;;6245543;28;20099;-77
2022/10/04 02:00:15;;;;;;;5.95;3.22;;;19.30;64.50;;;;;;6264411;28;20041;-77
2022/10/04 02:03:25;;;;;;;13.05;3.55;;;19.30;64.50;;;;;;6244606;28;20038;-78
2022/10/04 02:06:27;;;;;;;7.35;3.60;;;19.30;64.60;;;;;;6269203;28;20041;-77
2022/10/04 02:09:32;;;;;;;8.52;3.67;;;19.30;64.60;;;;;;6265467;28;20115;-77
2022/10/04 02:12:36;;;;;;;9.40;3.17;;;19.30;64.70;;;;;;6265314;28;20033;-78
2022/10/04 02:15:38;;;;;;;9.80;3.35;;;19.30;64.70;;;;;;6265619;28;20037;-78
2022/10/04 02:18:42;;;;;;;4.50;2.40;;;19.20;64.70;;;;;;6265221;28;20037;-78
2022/10/04 02:21:45;;;;;;;8.32;3.03;;;19.20;64.70;;;;;;6259123;28;20098;-78
2022/10/04 02:24:48;;;;;;;4.32;2.20;;;19.20;64.70;;;;;;6266504;28;20103;-77
2022/10/04 02:27:54;;;;;;;5.60;2.20;;;19.10;64.30;;;;;;6260760;28;20052;-77
2022/10/04 02:34:18;;;;;;;6.10;2.13;;;19.00;63.90;;;;;;6267515;28;20094;-78
2022/10/04 02:37:22;;;;;;;8.38;2.42;;;18.90;63.90;;;;;;6248376;28;20045;-78
2022/10/04 02:40:29;;;;;;;2.90;1.83;;;18.80;64.00;;;;;;6269710;28;20120;-78
2022/10/04 02:43:44;;;;;;;6.43;2.40;;;18.80;64.00;;;;;;6267442;28;20040;-78
2022/10/04 02:46:51;;;;;;;3.13;2.10;;;18.80;63.80;;;;;;6269136;28;20044;-78
2022/10/04 02:49:55;;;;;;;3.85;1.90;;;18.70;63.60;;;;;;6271575;28;20053;-78
2022/10/04 02:53:25;;;;;;;4.93;1.42;;;18.70;63.60;;;;;;6273825;28;20033;-77
2022/10/04 02:56:27;;;;;;;8.23;2.10;;;18.60;63.50;;;;;;6236025;28;20029;-77
2022/10/04 02:59:30;;;;;;;3.70;1.73;;;18.60;63.40;;;;;;6220695;28;20052;-78
2022/10/04 03:02:31;;;;;;;5.18;1.80;;;18.60;63.40;;;;;;6266590;28;20040;-78
2022/10/04 03:05:32;;;;;;;7.07;1.98;;;18.60;63.40;;;;;;6241065;28;20060;-79
2022/10/04 03:08:45;;;;;;;6.35;1.98;;;18.50;63.40;;;;;;6269355;28;20477;-78
2022/10/04 03:11:48;;;;;;;2.45;1.63;;;18.50;63.50;;;;;;6228770;28;20044;-78
2022/10/04 03:14:52;;;;;;;3.95;1.80;;;18.60;63.40;;;;;;6262165;28;20121;-78
2022/10/04 03:17:53;;;;;;;4.53;1.70;;;18.60;63.30;;;;;;6270363;28;20584;-78
2022/10/04 03:20:54;;;;;;;4.00;1.67;;;18.60;63.20;;;;;;6238904;28;20041;-78
2022/10/04 03:23:56;;;;;;;3.92;1.90;;;18.60;63.20;;;;;;6269673;28;20045;-78
2022/10/04 03:27:01;;;;;;;4.65;1.90;;;18.60;63.20;;;;;;6262001;28;20110;-78
2022/10/04 03:30:03;;;;;;;1.90;1.67;;;18.60;63.00;;;;;;6269218;28;20548;-78
2022/10/04 03:33:04;;;;;;;9.10;1.80;;;18.70;63.00;;;;;;6264877;28;20052;-78
2022/10/04 03:36:11;;;;;;;8.15;1.80;;;18.70;62.70;;;;;;6272167;28;20041;-78
2022/10/04 03:39:28;;;;;;;6.35;2.00;;;18.70;62.50;;;;;;6271695;28;20373;-78
2022/10/04 03:42:33;;;;;;;4.85;1.98;;;18.80;62.30;;;;;;6270219;28;20048;-78
2022/10/04 03:45:34;;;;;;;4.22;1.52;;;18.80;62.20;;;;;;6271387;28;20049;-77
2022/10/04 03:48:42;;;;;;;2.75;1.50;;;18.80;62.10;;;;;;6271809;28;20033;-77
2022/10/04 03:51:47;;;;;;;2.78;1.50;;;18.80;62.00;;;;;;6247454;28;20029;-77
2022/10/04 03:54:51;;;;;;;3.30;1.38;;;18.80;61.80;;;;;;6248694;28;20466;-77
2022/10/04 03:57:52;;;;;;;2.42;1.45;;;18.80;61.50;;;;;;6252373;28;20469;-77
2022/10/04 04:01:06;;;;;;;5.60;1.80;;;18.80;61.10;;;;;;6263077;28;20037;-77
2022/10/04 04:04:40;;;;;;;4.32;1.83;;;18.80;60.80;;;;;;6249090;28;20121;-77
2022/10/04 04:07:59;;;;;;;2.60;1.63;;;18.70;60.60;;;;;;6248910;28;20033;-78
2022/10/04 04:11:04;;;;;;;2.42;1.50;;;18.60;60.40;;;;;;6270146;28;20086;-77
2022/10/04 04:14:12;;;;;;;4.55;1.60;;;18.50;60.30;;;;;;6267067;28;20104;-77
2022/10/04 04:17:28;;;;;;;2.00;1.40;;;18.40;60.50;;;;;;6247090;28;20030;-77
2022/10/04 04:20:37;;;;;;;2.22;1.92;;;18.30;60.70;;;;;;6244941;28;20072;-77
2022/10/04 04:23:47;;;;;;;3.20;1.70;;;18.30;60.90;;;;;;6263925;28;20037;-77
2022/10/04 04:26:58;;;;;;;4.40;1.75;;;18.20;61.00;;;;;;6252865;28;20498;-77
2022/10/04 04:30:01;;;;;;;5.35;1.60;;;18.20;61.10;;;;;;6236497;28;20362;-77
2022/10/04 04:33:09;;;;;;;4.00;1.35;;;18.20;61.20;;;;;;6267974;28;20513;-77
2022/10/04 04:36:11;;;;;;;3.35;2.00;;;18.20;61.10;;;;;;6249784;28;20045;-77
2022/10/04 04:42:36;;;;;;;4.25;1.80;;;18.20;61.70;;;;;;6268448;28;20490;-77
2022/10/04 04:45:37;;;;;;;11.20;1.92;;;18.10;60.70;;;;;;6254250;28;20494;-77
2022/10/04 04:48:43;;;;;;;3.67;1.88;;;18.10;60.70;;;;;;6268455;28;20040;-77
2022/10/04 04:51:50;;;;;;;5.57;1.60;;;18.10;60.70;;;;;;6268606;28;20377;-77
2022/10/04 04:54:51;;;;;;;3.63;1.98;;;17.90;60.70;;;;;;6263760;28;20043;-77
2022/10/04 04:57:55;;;;;;;1.98;1.35;;;18.00;60.70;;;;;;6258377;28;20044;-77
2022/10/04 05:01:04;;;;;;;7.45;1.63;;;17.80;60.80;;;;;;6268613;28;20052;-78
2022/10/04 05:04:08;;;;;;;2.92;1.67;;;17.90;61.00;;;;;;6263382;28;20064;-77
2022/10/04 05:07:18;;;;;;;3.10;1.48;;;17.80;60.90;;;;;;6269571;28;20116;-78
2022/10/04 05:10:41;;;;;;;7.95;2.15;;;17.80;61.10;;;;;;6270331;28;20444;-78
2022/10/04 05:13:56;;;;;;;4.90;1.90;;;17.80;61.20;;;;;;6235356;28;20040;-78
2022/10/04 05:16:57;;;;;;;6.15;1.83;;;17.70;61.10;;;;;;6269590;28;20070;-79
2022/10/04 05:20:01;;;;;;;4.65;1.90;;;17.70;61.20;;;;;;6268918;28;20048;-78
2022/10/04 05:23:02;;;;;;;2.75;1.73;;;17.70;61.30;;;;;;6251699;28;20029;-78
2022/10/04 05:26:09;;;;;;;2.70;1.90;;;17.70;61.20;;;;;;6269089;28;20469;-78
2022/10/04 05:29:17;;;;;;;11.67;2.30;;;17.70;61.10;;;;;;6264495;28;20045;-78
2022/10/04 05:32:37;;;;;;;3.13;1.63;;;17.70;60.80;;;;;;6265067;28;20736;-78
2022/10/04 05:36:20;;;;;;;4.10;1.95;;;17.60;60.90;;;;;;6269078;28;20044;-78
2022/10/04 05:39:47;;;;;;;5.65;1.67;;;17.60;61.00;;;;;;6218442;28;20458;-78
2022/10/04 05:42:51;;;;;;;4.85;1.45;;;17.60;61.10;;;;;;6127126;28;20500;-78
2022/10/04 05:46:17;;;;;;;3.20;1.70;;;17.60;61.10;;;;;;6143117;28;20039;-78
2022/10/04 05:49:21;;;;;;;2.58;1.42;;;17.60;61.00;;;;;;6125373;29;20350;-78
2022/10/04 05:52:34;;;;;;;9.07;1.70;;;17.60;60.80;;;;;;6127261;29;20047;-78
2022/10/04 05:55:51;;;;;;;4.57;2.05;;;17.60;60.80;;;;;;6120010;29;20113;-78
2022/10/04 05:59:10;;;;;;;4.43;1.65;;;17.50;60.70;;;;;;6124903;29;20043;-78
2022/10/04 06:02:26;;;;;;;2.92;1.58;;;17.50;60.70;;;;;;6135907;28;20035;-78
2022/10/04 06:05:47;;;;;;;4.43;1.75;;;17.50;60.70;;;;;;6151209;29;20056;-78
2022/10/04 06:09:03;;;;;;;5.53;1.65;;;17.50;60.70;;;;;;6144043;29;20476;-78
2022/10/04 06:12:15;;;;;;;6.75;1.92;;;17.50;60.50;;;;;;6127360;28;20031;-78
2022/10/04 06:15:35;;;;;;;5.10;2.00;;;17.40;60.40;;;;;;6165518;28;20031;-78
2022/10/04 06:18:48;;;;;;;8.02;2.22;;;17.40;60.30;;;;;;6180375;28;20336;-78
2022/10/04 06:21:52;;;;;;;4.25;1.77;;;17.40;60.20;;;;;;6226545;28;20120;-79
2022/10/04 06:25:01;;;;;;;14.40;1.90;;;17.40;60.40;;;;;;6246995;28;20053;-78
2022/10/04 06:28:23;;;;;;;4.13;1.63;;;17.30;60.30;;;;;;6249841;28;20041;-77
2022/10/04 06:31:37;;;;;;;4.78;2.25;;;17.30;60.50;;;;;;6249352;28;20095;-77
2022/10/04 06:34:54;;;;;;;3.92;1.70;;;17.30;60.60;;;;;;6242309;28;20045;-78
2022/10/04 06:38:25;;;;;;;10.90;2.25;;;17.30;60.80;;;;;;6248749;28;20043;-78
2022/10/04 06:42:06;;;;;;;23.48;2.00;;;17.30;60.90;;;;;;6242257;28;20064;-78
2022/10/04 06:45:11;;;;;;;;;;;17.30;60.80;;;;;;6240241;28;20036;-78
2022/10/04 06:48:37;;;;;;;3.28;1.65;;;17.40;60.50;;;;;;6255501;28;19913;-79
2022/10/04 06:52:22;;;;;;;2.50;1.60;;;17.40;60.30;;;;;;6228744;28;20033;-77
2022/10/04 06:55:32;;;;;;;2.28;1.77;;;17.40;60.20;;;;;;6216171;28;20096;-78
2022/10/04 06:59:06;;;;;;;4.40;1.85;;;17.50;60.10;;;;;;6227020;28;20044;-77
2022/10/04 07:02:24;;;;;;;7.72;2.55;;;17.50;60.20;;;;;;6255869;28;20022;-77
2022/10/04 07:05:31;;;;;;;6.57;2.80;;;17.60;60.10;;;;;;6265653;28;20034;-77
2022/10/04 07:08:49;;;;;;;7.70;2.55;;;17.60;60.10;;;;;;6249615;28;20045;-78
2022/10/04 07:12:09;;;;;;;6.55;2.03;;;17.70;60.20;;;;;;6239675;28;20029;-78
2022/10/04 07:15:25;;;;;;;3.63;2.30;;;17.70;60.30;;;;;;6239741;28;20498;-77
2022/10/04 07:18:48;;;;;;;8.18;2.60;;;17.80;60.60;;;;;;6213938;28;20489;-77
2022/10/04 07:22:07;;;;;;;6.70;2.40;;;17.80;60.80;;;;;;6239310;28;20475;-78
2022/10/04 07:25:27;;;;;;;3.28;2.17;;;17.90;61.40;;;;;;6242078;28;20036;-78
2022/10/04 07:32:37;;;;;;;9.77;2.97;;;18.00;61.90;;;;;;6235223;28;20197;-77
2022/10/04 07:35:49;;;;;;;4.50;2.38;;;18.10;62.10;;;;;;6186058;28;20491;-78
2022/10/04 07:38:55;;;;;;;9.40;2.55;;;18.20;62.00;;;;;;6192245;28;20471;-78
2022/10/04 07:42:04;;;;;;;6.53;2.92;;;18.30;62.00;;;;;;6175115;28;20530;-78
2022/10/04 07:45:29;;;;;;;7.00;3.05;;;18.40;61.60;;;;;;6186802;28;20034;-78
2022/10/04 07:48:32;;;;;;;6.85;2.97;;;18.60;61.60;;;;;;6201391;28;20049;-78
2022/10/04 07:51:52;;;;;;;5.95;3.00;;;18.70;61.50;;;;;;6174527;28;20046;-79
2022/10/04 07:55:25;;;;;;;4.28;2.60;;;18.80;61.20;;;;;;6148750;28;20490;-78
2022/10/04 07:58:29;;;;;;;13.70;3.38;;;18.80;60.90;;;;;;6182503;28;20038;-79
2022/10/04 08:01:46;;;;;;;7.10;2.50;;;19.00;60.90;;;;;;6194909;28;20364;-78
2022/10/04 08:05:06;;;;;;;4.43;2.70;;;19.10;60.50;;;;;;6205404;28;20045;-78
2022/10/04 08:08:20;;;;;;;6.47;2.70;;;19.10;60.30;;;;;;6245745;28;20038;-79
2022/10/04 08:11:48;;;;;;;9.30;2.88;;;19.30;60.50;;;;;;6243979;28;20045;-78
2022/10/04 08:15:06;;;;;;;6.57;3.22;;;19.40;60.00;;;;;;6228150;28;20047;-78
2022/10/04 08:18:10;;;;;;;9.43;2.90;;;19.40;59.60;;;;;;6245326;28;20029;-79
2022/10/04 08:21:25;;;;;;;9.40;3.00;;;19.50;59.50;;;;;;6246896;28;20037;-79
2022/10/04 08:24:37;;;;;;;11.77;3.30;;;19.70;59.60;;;;;;6246989;28;20118;-80
2022/10/04 08:31:23;;;;;;;10.02;3.38;;;19.90;59.30;;;;;;6246355;28;20045;-79
2022/10/04 08:34:30;;;;;;;8.73;2.90;;;20.00;59.10;;;;;;6230124;28;20506;-79
2022/10/04 08:37:32;;;;;;;5.32;3.00;;;20.20;58.80;;;;;;6223642;28;20042;-78
2022/10/04 08:41:07;;;;;;;13.50;3.35;;;20.30;58.60;;;;;;6219466;28;20041;-79
2022/10/04 08:44:29;;;;;;;4.20;2.58;;;20.40;58.10;;;;;;6232506;28;20192;-79
2022/10/04 08:48:07;;;;;;;6.57;2.75;;;20.50;57.80;;;;;;6245165;28;20148;-79
2022/10/04 08:51:14;;;;;;;7.18;3.20;;;20.70;57.70;;;;;;6229881;28;20053;-79
2022/10/04 08:54:36;;;;;;;7.05;3.15;;;20.80;57.50;;;;;;6221370;28;20072;-78
2022/10/04 08:57:56;;;;;;;7.18;3.13;;;20.90;57.20;;;;;;6240970;28;20037;-79
2022/10/04 09:01:18;;;;;;;6.25;3.20;;;21.00;57.00;;;;;;6210394;28;20038;-79
2022/10/04 09:04:40;;;;;;;9.40;3.03;;;21.10;56.80;;;;;;6223134;28;20037;-79
2022/10/04 09:08:10;;;;;;;4.32;2.30;;;21.20;56.60;;;;;;6241514;28;20207;-79
2022/10/04 09:11:31;;;;;;;3.92;2.08;;;21.30;56.20;;;;;;6217775;28;20133;-79
2022/10/04 09:14:55;;;;;;;5.60;2.00;;;21.30;55.80;;;;;;6217190;28;20033;-78
2022/10/04 09:18:08;;;;;;;4.80;2.35;;;21.40;55.70;;;;;;6237833;28;20041;-78
2022/10/04 09:21:12;;;;;;;17.10;3.88;;;21.40;55.40;;;;;;6217143;28;20368;-79
2022/10/04 09:24:32;;;;;;;7.43;2.38;;;21.40;55.40;;;;;;6216746;28;20447;-78
2022/10/04 09:27:47;;;;;;;17.50;7.60;;;21.40;55.30;;;;;;6225490;28;20030;-78
2022/10/04 09:31:09;;;;;;;26.60;7.55;;;21.50;55.20;;;;;;6234733;28;20462;-79
2022/10/04 09:34:32;;;;;;;10.30;3.05;;;21.60;55.10;;;;;;6238147;28;20065;-78
2022/10/04 09:37:50;;;;;;;7.63;3.10;;;21.70;54.90;;;;;;6211511;28;20467;-79
2022/10/04 09:41:28;;;;;;;15.23;6.10;;;21.70;54.80;;;;;;6200528;28;20501;-79
2022/10/04 09:45:07;;;;;;;5.63;2.90;;;21.90;54.40;;;;;;6223153;28;20490;-79
2022/10/04 09:48:24;;;;;;;;;;;21.90;54.10;;;;;;6242657;28;20029;-79
2022/10/04 09:51:31;;;;;;;13.18;5.72;;;22.00;53.90;;;;;;6237783;28;19920;-78
2022/10/04 09:55:03;;;;;;;12.10;3.30;;;22.00;53.60;;;;;;6184469;28;20050;-78
2022/10/04 09:58:22;;;;;;;6.15;3.42;;;22.10;53.40;;;;;;6210015;28;20046;-79
2022/10/04 10:01:28;;;;;;;7.13;2.53;;;22.10;53.00;;;;;;6236324;28;20037;-79
2022/10/04 10:04:38;;;;;;;5.93;2.97;;;22.20;53.00;;;;;;6222070;28;20487;-79
2022/10/04 10:07:47;;;;;;;3.33;1.65;;;22.20;52.80;;;;;;6239009;28;20038;-79
2022/10/04 10:15:00;;;;;;;18.15;4.90;;;22.30;52.50;;;;;;6224078;28;20051;-78
2022/10/04 10:18:07;;;;;;;23.50;7.72;;;22.30;52.70;;;;;;6228055;28;20578;-79
2022/10/04 10:21:41;;;;;;;13.63;5.93;;;22.50;52.70;;;;;;6228352;28;20041;-78
2022/10/04 10:24:45;;;;;;;6.07;3.03;;;22.80;52.30;;;;;;6216489;28;20041;-79
2022/10/04 10:27:58;;;;;;;5.18;2.47;;;23.10;51.70;;;;;;6238282;28;20410;-78
2022/10/04 10:31:29;;;;;;;9.02;2.28;;;23.40;51.30;;;;;;6219315;28;20041;-79
2022/10/04 10:34:39;;;;;;;4.60;1.90;;;23.80;50.70;;;;;;6212555;28;20030;-78
2022/10/04 10:37:49;;;;;;;9.80;2.10;;;24.00;50.00;;;;;;6222909;28;20486;-80
2022/10/04 10:41:41;;;;;;;6.82;1.77;;;24.10;49.30;;;;;;6241087;28;20041;-79
2022/10/04 10:45:11;;;;;;;5.03;2.15;;;24.30;48.90;;;;;;6170282;28;20034;-80
2022/10/04 10:48:23;;;;;;;2.13;1.60;;;24.50;48.50;;;;;;6145883;28;20375;-78
2022/10/04 10:51:54;;;;;;;2.88;1.40;;;24.70;48.00;;;;;;6153833;28;20039;-80
2022/10/04 10:55:30;;;;;;;2.92;1.70;;;25.00;47.10;;;;;;6185219;28;20117;-79
2022/10/04 10:59:00;;;;;;;8.63;2.10;;;25.20;46.90;;;;;;6179125;28;20038;-79
2022/10/04 11:02:16;;;;;;;6.57;2.33;;;25.40;46.40;;;;;;6184736;28;20102;-78
2022/10/04 11:06:02;;;;;;;10.77;2.35;;;25.70;46.20;;;;;;6189073;28;20034;-79
2022/10/04 11:09:44;;;;;;;6.43;2.25;;;26.00;45.90;;;;;;6169620;28;20034;-79
2022/10/04 11:13:25;;;;;;;2.75;1.90;;;26.50;45.40;;;;;;6075184;29;20407;-79
2022/10/04 11:16:55;;;;;;;3.30;2.00;;;26.80;44.50;;;;;;6095639;29;20041;-79
2022/10/04 11:20:34;;;;;;;4.00;1.80;;;27.10;44.00;;;;;;6119687;28;20040;-79
2022/10/04 11:24:03;;;;;;;2.20;1.70;;;27.40;43.20;;;;;;6144301;28;20500;-79
2022/10/04 11:27:30;;;;;;;3.55;1.60;;;27.60;41.70;;;;;;6137552;28;20517;-79
2022/10/04 11:31:10;;;;;;;5.25;1.60;;;27.80;41.70;;;;;;6120726;29;20048;-79
2022/10/04 11:34:38;;;;;;;;;;;28.00;41.00;;;;;;6137617;28;20043;-78
2022/10/04 11:37:56;;;;;;;2.47;1.60;;;28.20;40.50;;;;;;6129471;28;19923;-79
2022/10/04 11:41:23;;;;;;;3.15;1.33;;;28.50;40.00;;;;;;6109627;29;20054;-79
2022/10/04 11:44:38;;;;;;;5.45;1.60;;;28.80;39.60;;;;;;6144967;28;20290;-78
2022/10/04 11:48:17;;;;;;;2.58;1.67;;;29.10;38.80;;;;;;6155829;28;20049;-80
2022/10/04 11:51:57;;;;;;;3.83;2.30;;;29.50;38.00;;;;;;6244805;28;20039;-79
2022/10/04 11:55:20;;;;;;;5.78;1.50;;;29.90;37.20;;;;;;6179883;28;20034;-80
2022/10/04 11:58:36;;;;;;;3.80;1.90;;;30.50;36.50;;;;;;6192909;28;20130;-80
2022/10/04 12:01:52;;;;;;;6.40;1.65;;;30.90;35.50;;;;;;6185500;28;20077;-79
2022/10/04 12:05:11;;;;;;;2.45;1.25;;;31.20;34.90;;;;;;6210735;28;20041;-79
2022/10/04 12:08:40;;;;;;;6.07;1.40;;;31.60;34.40;;;;;;6199487;28;20030;-79
2022/10/04 12:15:37;;;;;;;2.13;1.27;;;32.30;33.50;;;;;;6209248;28;20034;-79
2022/10/04 12:19:12;;;;;;;7.28;1.70;;;32.60;32.50;;;;;;6211769;28;20049;-79
2022/10/04 12:22:22;;;;;;;8.05;1.70;;;32.90;31.60;;;;;;6217978;28;20105;-78
2022/10/04 12:25:35;;;;;;;1.63;1.35;;;33.30;31.00;;;;;;6183457;28;20030;-78
2022/10/04 12:28:57;;;;;;;2.13;1.20;;;33.60;30.60;;;;;;6220928;28;20038;-78
2022/10/04 12:32:09;;;;;;;3.10;1.48;;;33.90;30.20;;;;;;6201822;28;20045;-79
2022/10/04 12:35:13;;;;;;;2.95;1.30;;;34.30;29.70;;;;;;6217969;28;20522;-79
2022/10/04 12:38:23;;;;;;;4.05;1.25;;;34.50;29.20;;;;;;6227693;28;20351;-79
2022/10/04 12:41:40;;;;;;;3.40;1.55;;;34.70;29.00;;;;;;6241986;28;20493;-80
2022/10/04 12:45:02;;;;;;;10.88;1.60;;;35.00;28.70;;;;;;6217332;28;20192;-79
2022/10/04 12:48:31;;;;;;;2.42;1.52;;;35.30;28.40;;;;;;6241256;28;20174;-79
2022/10/04 12:51:50;;;;;;;5.30;1.55;;;35.30;28.30;;;;;;6209523;28;20030;-79
2022/10/04 12:55:09;;;;;;;6.60;1.60;;;34.50;28.70;;;;;;6223000;28;20064;-80
2022/10/04 12:58:29;;;;;;;10.45;1.67;;;33.40;29.60;;;;;;6237313;28;20047;-79
2022/10/04 13:01:54;;;;;;;3.40;1.30;;;32.50;30.50;;;;;;6242987;28;20085;-79
2022/10/04 13:05:06;;;;;;;2.63;1.50;;;31.70;31.40;;;;;;6240592;28;20048;-79
2022/10/04 13:08:36;;;;;;;5.03;1.77;;;31.00;32.40;;;;;;6230693;28;20037;-79
2022/10/04 13:11:53;;;;;;;2.78;1.15;;;30.50;33.10;;;;;;6227964;28;20470;-79
2022/10/04 13:15:00;;;;;;;2.75;1.50;;;30.00;33.60;;;;;;6244008;28;20036;-78
2022/10/04 13:18:30;;;;;;;4.70;1.40;;;29.50;34.20;;;;;;6241012;28;20045;-79
2022/10/04 13:21:40;;;;;;;4.88;1.52;;;29.00;34.70;;;;;;6238222;28;20037;-79
2022/10/04 13:24:57;;;;;;;4.07;1.83;;;28.70;35.20;;;;;;6240965;28;20030;-79
2022/10/04 13:28:05;;;;;;;2.10;1.35;;;28.40;35.60;;;;;;6217250;28;20038;-79
2022/10/04 13:31:33;;;;;;;4.60;1.35;;;28.20;36.00;;;;;;6200082;28;20371;-80
2022/10/04 13:35:02;;;;;;;4.30;1.40;;;27.90;36.40;;;;;;6249725;28;20117;-79
2022/10/04 13:38:28;;;;;;;5.53;1.60;;;27.70;36.80;;;;;;6241549;28;20053;-79
2022/10/04 13:41:29;;;;;;;5.28;1.73;;;27.60;37.10;;;;;;6220217;28;20440;-79
2022/10/04 13:44:57;;;;;;;3.05;1.60;;;27.40;37.30;;;;;;6240469;28;20032;-79
2022/10/04 13:48:09;;;;;;;2.38;1.45;;;27.20;37.70;;;;;;6235894;28;20466;-79
2022/10/04 13:51:32;;;;;;;2.28;1.45;;;27.10;37.90;;;;;;6241496;28;20378;-79
2022/10/04 13:58:13;;;;;;;5.55;1.40;;;26.90;38.10;;;;;;6250437;28;20316;-79
2022/10/04 14:01:25;;;;;;;3.00;1.33;;;26.90;38.40;;;;;;6248654;28;20491;-78
2022/10/04 14:05:00;;;;;;;7.03;1.48;;;26.80;38.50;;;;;;6242299;28;20052;-79
2022/10/04 14:08:12;;;;;;;5.20;1.40;;;26.80;38.70;;;;;;6214503;28;20046;-79
2022/10/04 14:11:35;;;;;;;3.13;1.75;;;26.70;38.80;;;;;;6241871;28;20029;-79
2022/10/04 14:15:03;;;;;;;2.78;1.27;;;26.70;38.90;;;;;;6237766;28;20045;-79
2022/10/04 14:18:25;;;;;;;8.88;1.55;;;26.70;39.00;;;;;;6244246;28;20033;-79
2022/10/04 14:22:01;;;;;;;4.53;1.33;;;26.60;39.10;;;;;;6240606;28;20037;-79
2022/10/04 14:25:09;;;;;;;4.25;1.27;;;26.60;39.20;;;;;;6235762;28;20033;-79
2022/10/04 14:28:15;;;;;;;1.95;1.30;;;26.60;39.20;;;;;;6240979;28;20136;-79
2022/10/04 14:31:26;;;;;;;8.07;1.90;;;26.60;39.30;;;;;;6241524;28;20053;-79
2022/10/04 14:34:36;;;;;;;7.38;1.60;;;26.60;39.40;;;;;;6220807;28;20072;-79
2022/10/04 14:37:39;;;;;;;4.47;1.55;;;26.60;39.40;;;;;;6245461;28;20371;-80
2022/10/04 14:41:14;;;;;;;4.50;1.60;;;26.60;39.50;;;;;;6229477;28;20061;-79
2022/10/04 14:44:39;;;;;;;2.78;1.38;;;26.60;39.50;;;;;;6243674;28;20068;-79
2022/10/04 14:48:20;;;;;;;2.72;1.50;;;26.60;39.60;;;;;;6263894;28;20071;-79
2022/10/04 14:51:49;;;;;;;4.03;1.50;;;26.50;39.70;;;;;;6211597;28;20053;-78
2022/10/04 14:55:09;;;;;;;2.95;1.85;;;26.50;39.80;;;;;;6239278;28;20042;-79
2022/10/04 14:58:40;;;;;;;4.88;1.45;;;26.50;40.40;;;;;;6254891;28;20111;-79
2022/10/04 15:02:13;;;;;;;11.77;1.70;;;26.50;39.80;;;;;;6252164;28;20029;-78
2022/10/04 15:05:59;;;;;;;4.18;1.40;;;26.50;39.90;;;;;;6170533;28;20030;-79
2022/10/04 15:09:17;;;;;;;1.95;1.52;;;26.50;39.80;;;;;;6155302;28;20041;-78
2022/10/04 15:12:31;;;;;;;9.25;1.42;;;26.40;39.80;;;;;;6191748;28;20121;-80
2022/10/04 15:15:54;;;;;;;3.80;1.45;;;26.40;39.80;;;;;;6163762;28;20035;-79
2022/10/04 15:19:35;;;;;;;1.90;1.38;;;26.40;40.00;;;;;;6164105;28;20455;-80
2022/10/04 15:22:40;;;;;;;6.75;1.33;;;26.30;40.10;;;;;;6151666;28;22181;-78
2022/10/04 15:25:47;;;;;;;5.00;1.40;;;26.40;40.10;;;;;;6155647;28;20027;-79
2022/10/04 15:28:48;;;;;;;2.25;1.42;;;26.40;40.20;;;;;;6154776;28;20420;-79
2022/10/04 15:32:05;;;;;;;15.93;1.73;;;26.30;40.30;;;;;;6165720;28;20117;-79
2022/10/04 15:35:35;;;;;;;6.07;1.67;;;26.30;40.40;;;;;;6138493;28;20365;-80
2022/10/04 15:38:55;;;;;;;8.05;1.42;;;26.20;40.50;;;;;;6186555;28;20047;-79
2022/10/04 15:41:56;;;;;;;13.57;2.08;;;26.20;40.60;;;;;;6205024;28;20180;-79
2022/10/04 15:45:29;;;;;;;12.25;1.88;;;26.20;40.90;;;;;;6222586;28;20022;-79
2022/10/04 15:48:54;;;;;;;5.20;1.85;;;26.20;41.30;;;;;;6244358;28;20057;-79
2022/10/04 15:52:04;;;;;;;6.90;1.90;;;26.10;41.60;;;;;;6242639;28;20056;-78
2022/10/04 15:55:23;;;;;;;5.57;1.75;;;26.20;41.90;;;;;;6219436;28;20048;-79
2022/10/04 15:58:43;;;;;;;2.65;1.60;;;26.10;42.10;;;;;;6235699;28;20045;-79
2022/10/04 16:02:25;;;;;;;2.38;1.42;;;26.00;42.10;;;;;;6242121;28;20049;-78
2022/10/04 16:05:38;;;;;;;4.05;1.33;;;25.90;42.20;;;;;;6185409;28;20057;-79
2022/10/04 16:09:00;;;;;;;2.22;1.77;;;25.90;42.80;;;;;;6187948;28;20158;-78
2022/10/04 16:12:13;;;;;;;2.63;1.30;;;25.90;42.30;;;;;;6198194;28;20030;-79
2022/10/04 16:15:37;;;;;;;4.22;1.40;;;25.80;42.30;;;;;;6197252;28;20065;-80
2022/10/04 16:19:17;;;;;;;9.90;1.67;;;25.70;42.40;;;;;;6211680;28;20131;-79
2022/10/04 16:22:26;;;;;;;;;;;25.60;42.40;;;;;;6117793;29;20131;-79
2022/10/04 16:25:36;;;;;;;5.35;1.60;;;25.60;42.40;;;;;;6116820;28;19922;-79
2022/10/04 16:29:31;;;;;;;9.90;1.63;;;25.60;42.40;;;;;;6106803;29;20126;-79
2022/10/04 16:33:04;;;;;;;1.65;1.30;;;25.50;42.50;;;;;;6080053;29;20115;-79
2022/10/04 16:36:08;;;;;;;15.25;1.10;;;25.40;42.60;;;;;;6064278;29;20040;-79
2022/10/04 16:43:00;;;;;;;6.10;1.70;;;25.30;42.80;;;;;;6039589;29;20577;-79
2022/10/04 16:46:34;;;;;;;4.13;1.20;;;25.20;43.20;;;;;;6049772;29;20044;-80
2022/10/04 16:49:48;;;;;;;6.28;1.85;;;25.10;43.60;;;;;;6040946;29;20127;-79
2022/10/04 16:53:04;;;;;;;4.63;1.90;;;25.00;43.80;;;;;;6025001;29;20113;-78
2022/10/04 16:56:25;;;;;;;5.20;1.77;;;24.90;44.30;;;;;;6037283;29;20113;-78
2022/10/04 16:59:43;;;;;;;8.38;1.52;;;24.80;45.00;;;;;;6049535;29;20050;-79
2022/10/04 17:03:16;;;;;;;3.80;1.70;;;24.70;45.30;;;;;;6053345;29;20044;-78
2022/10/04 17:06:30;;;;;;;6.18;2.10;;;24.60;45.60;;;;;;6096746;29;20046;-78
2022/10/04 17:10:01;;;;;;;7.15;2.00;;;24.50;45.60;;;;;;6107355;29;20174;-78
2022/10/04 17:13:42;;;;;;;7.78;2.90;;;24.50;46.00;;;;;;6124785;29;20071;-79
2022/10/04 17:16:56;;;;;;;3.33;1.85;;;24.40;46.20;;;;;;6094088;29;20143;-79
2022/10/04 17:20:28;;;;;;;4.88;2.13;;;24.30;46.50;;;;;;6116833;28;20098;-78
2022/10/04 17:23:59;;;;;;;4.00;1.90;;;24.20;46.80;;;;;;6162464;28;20062;-79
2022/10/04 17:27:34;;;;;;;2.70;2.00;;;24.10;47.20;;;;;;6128273;28;20036;-78
2022/10/04 17:31:08;;;;;;;19.30;2.58;;;24.00;47.60;;;;;;6131769;28;20149;-79